Haywood NorAm Canada Cup Mass Start Free Technique | Zone4.ca



Haywood NorAm Canada Cup Mass Free

Date: Dec 3, 2006
Official  Results
Location: Canmore Nordic Centre
Host Club: XC World Cup Society

Jury
Technical Delegate:  Jim Thomson 
Chief of Competition:  Robert Hogg 
Asst Technical Delegate:  Jim McCarthy 
Obs. Time: 10:00am
Wind Vel: 5 km/hr Wind Dir: NW
Air Temp: -5.7 C Snow Temp: -10 C
Weather: bright overcast Snow Cond: hard artificial

Open Women 10 km. Free Mass Start    
PL Bib Name CCCLic FISLic Club Time Diff
1 10 Brittany  Webster           JR 14219 3105097 Highlands Nordic 0:28:44.0  
2 12 Brooke Gosling 12494 1341316 X-C.com/FNSC 0:28:55.6 +11.6
3 3 Elizabeth (Liz) Stephen         JR   3535261 US Ski Team 0:28:56.1 +12.1
4 13 Morgan Arritola     U23 Smdl4 3535270 US Ski  Team/SVSEF 0:29:02.3 +18.3
5 5 Tasha Betcherman 6418 1333459 Lappe Nordic 0:29:09.0 +25.0
6 2 Amanda Ammar            U23 12889 3105023 National Ski Team, Edmonton Nordic 0:29:11.3 +27.3
7 1 Milaine Theriault 3823 1129177 FNSC/X-C.com 0:29:19.3 +35.3
8 7 Tara Whitten 5866 1324923 INDi2010 0:29:20.0 +36.0
9 6 Madeleine Williams 6409 3105007 National Ski Team, Edmonton Nordic 0:30:07.2 +1:23.2
10 11 Jacqui Benson 6455 1340928 Caledonia Nordics 0:30:14.5 +1:30.5
11 20 Kate Brennan         JR 13269 3105066 NTDC/Kanata Racers 0:30:16.7 +1:32.7
12 8 Shayla Swanson 5778 1343898 FNSC/X-C.com 0:30:35.5 +1:51.5
13 19 Megan McTavish 4881 1341510 XC Ottawa 0:30:36.1 +1:52.1
14 16 Magi Scallion 6345 3105070 Banff Ski Runners 0:30:36.3 +1:52.3
15 4 Perianne Jones            U23 12918 3105019 National Ski Team, Nakkertok 0:30:56.9 +2:12.9
16 9 Christine Bisson 5949 1341025 Nordique Mont-Ste-Anne 0:31:04.7 +2:20.7
17 17 Sara  Hewitt            JR 13450 3105080 FNSC 0:31:05.9 +2:21.9
18 24 Maryse L'Heureux       JR 13635 3105108 Skiélite 0:31:08.2 +2:24.2
19 26 Marlis Kromm         JR 14211 3105093 FNSC 0:31:27.7 +2:43.7
20 22 Alysson Marshall          JR 13482 3105084 Silver Star Nordic Racing 0:31:36.7 +2:52.7
21 27 Eva Szabo 13514   FNSC 0:32:01.4 +3:17.4
22 25 Karla Mika 5378 3105085 Highlands Trailblazers 0:32:21.0 +3:37.0
23 36 Kathy  Davies 18395   CNSC 0:32:34.4 +3:50.4
24 23 Hannah Perry             JR 13443 3105086 FNSC 0:33:17.3 +4:33.3
25 21 Alexia Pichard-JolicoeurU23 13114   Nordique Mont-Ste-Anne 0:33:19.0 +4:35.0
26 29 Virginia  Lehoux Gagnon   JR 13680   Skiélite/Quebec Team 0:33:36.8 +4:52.8
27 32 Clare Peacock        JR 13532   Silver Star Nordic Racing 0:34:06.2 +5:22.2
28 30 Sophie Harvey            JR 13887   Nordique Mont-Ste-Anne 0:34:21.9 +5:37.9
29 33 Emilie Chartrand        JR 14113 3105099 Skiélite 0:36:10.8 +7:26.8
30 28 Sophie Boyer            JR 13278 3105102 Skiélite/ÉQ 0:37:00.8 +8:16.8
31 34 Sharon Hogg 13209   FNSC 0:38:48.6 +10:04.6
DNS 14 Sarah Daitch 5981 3105002 Fort Smith / RMR *** ***
DNS 15 Rhonda Sandau 5776 1341704 INDi2010 / FNSC *** ***
DNS 18 Marcia Birkigt          U23 12873 3105012 Camrose Ski Club *** ***
DNS 31 Cathy Jaques            JR 12974 3105092 Rocky Mountain Racers *** ***
DNS 35 ingeborg scheve   3535380 XC Oregon/Madshus  *** ***


Results are posted through an automated system by licenced clubs. For inquires about result corrections please contact the race organizer.

Copyright 2020 - Zone4 Systems zone4.ca       Privacy Policy     Delivery/Refund Policy     Terms of Service    Contact Zone4